Flight Track Log - Related Links

Times and Time Zones

All times are in EDT time to prevent confusion due to time zone crossing. See the AAL1862 flight status page for this flight to view local times or setup timezone preferences in your user account.

Time Position Orientation Groundspeed Altitude Reporting Facility
EDT Latitude Longitude Course Direction KTS MPH feet Rate Location/Type
Tue 07:49:05 AM 32.8833 -97.0333 357° North 143 165 1,300  Level Dallas / Fort Worth TRACON
Tue 07:50:05 AM 32.8333 -97.0167 164° South 200 230 3,500 2,200 Climbing Dallas / Fort Worth TRACON
Tue 07:51:00 AM 32.8848 -96.8000 North  Level FlightAware Approximate
Tue 07:51:05 AM 32.7833 -96.9833 151° Southeast 238 274 5,700  Level Dallas / Fort Worth TRACON
Tue 07:52:00 AM 33.0147 -96.8000 North  Level FlightAware Approximate
Tue 07:52:05 AM 32.7667 -96.9167 107° East 304 350 8,200  Level Dallas / Fort Worth TRACON
Tue 07:53:00 AM 33.1444 -96.8055 357° North  Level FlightAware Approximate
Tue 07:54:00 AM 33.2741 -96.8148 357° North  Level FlightAware Approximate
Tue 07:54:34 AM 33.0033 -96.8686 10° North 332 382 35,000  Level Fort Worth Center
Tue 07:55:34 AM 33.1119 -96.8603 North 374 430 16,300 -8,300 Descending Fort Worth Center
Tue 07:56:34 AM 33.2286 -96.8472 North 411 473 18,400 2,000 Climbing Fort Worth Center
Tue 07:57:34 AM 33.3478 -96.8342 North 421 484 20,300 1,900 Climbing Fort Worth Center
Tue 07:58:34 AM 33.4583 -96.8183 North 433 498 22,200 1,700 Climbing Fort Worth Center
Tue 07:59:34 AM 33.5831 -96.7428 27° Northeast 440 506 23,700 1,600 Climbing Fort Worth Center
Tue 08:00:34 AM 33.6994 -96.6644 29° Northeast 456 525 25,400 1,700 Climbing Fort Worth Center
Tue 08:01:34 AM 33.8094 -96.5811 32° Northeast 461 531 27,100 1,650 Climbing Fort Worth Center
Tue 08:02:34 AM 33.9153 -96.4825 38° Northeast 468 539 28,700 1,350 Climbing Fort Worth Center
Tue 08:03:34 AM 34.0272 -96.3911 34° Northeast 479 551 29,800 1,200 Climbing Fort Worth Center
Tue 08:04:34 AM 34.1308 -96.2944 38° Northeast 474 545 31,100 1,300 Climbing Fort Worth Center
Tue 08:05:34 AM 34.2383 -96.2000 36° Northeast 474 545 32,400 1,150 Climbing Fort Worth Center
Tue 08:06:34 AM 34.3439 -96.1056 36° Northeast 474 545 33,400 1,150 Climbing Fort Worth Center
Tue 08:07:34 AM 34.4514 -96.0108 36° Northeast 474 545 34,700 800 Climbing Fort Worth Center
Tue 08:08:34 AM 34.5589 -95.9208 35° Northeast 474 545 35,000 150 Climbing Fort Worth Center
Tue 08:09:34 AM 34.6642 -95.8231 37° Northeast 474 545 35,000  Level Fort Worth Center
Tue 08:10:34 AM 34.7714 -95.7325 35° Northeast 474 545 35,000  Level Fort Worth Center
Tue 08:11:34 AM 34.8806 -95.6342 36° Northeast 474 545 35,000  Level Fort Worth Center
Tue 08:12:34 AM 34.9939 -95.5356 35° Northeast 484 557 35,000  Level Fort Worth Center
Tue 08:13:34 AM 35.1031 -95.4392 36° Northeast 484 557 35,000  Level Fort Worth Center
Tue 08:14:34 AM 35.2097 -95.3403 37° Northeast 484 557 35,000  Level Fort Worth Center
Tue 08:15:06 AM 35.2481 -95.3033 38° Northeast 486 559 35,000  Level Kansas City Center
Tue 08:16:07 AM 35.3769 -95.1864 36° Northeast 481 554 35,000  Level Kansas City Center
Tue 08:17:08 AM 35.4892 -95.0894 35° Northeast 490 564 35,000  Level Memphis Center
Tue 08:18:08 AM 35.5928 -94.9933 37° Northeast 490 564 35,000  Level Memphis Center
Tue 08:19:11 AM 35.6997 -94.8914 38° Northeast 482 555 35,000  Level Kansas City Center
Tue 08:20:08 AM 35.8086 -94.7931 36° Northeast 485 558 35,000  Level Memphis Center
Tue 08:21:08 AM 35.9164 -94.6936 37° Northeast 485 558 35,000  Level Memphis Center
Tue 08:22:08 AM 36.0242 -94.5942 37° Northeast 480 552 35,000  Level Memphis Center
Tue 08:23:16 AM 36.1289 -94.4969 37° Northeast 482 555 35,000  Level Kansas City Center
Tue 08:24:17 AM 36.2575 -94.3778 37° Northeast 483 556 35,000  Level Kansas City Center
Tue 08:25:19 AM 36.3639 -94.2781 37° Northeast 482 555 35,000  Level Kansas City Center
Tue 08:26:20 AM 36.4706 -94.1767 37° Northeast 483 556 35,000  Level Kansas City Center
Tue 08:27:21 AM 36.5775 -94.0783 36° Northeast 480 552 35,000  Level Kansas City Center
Tue 08:28:23 AM 36.6853 -93.9767 37° Northeast 484 557 35,000  Level Kansas City Center
Tue 08:29:24 AM 36.7925 -93.8728 38° Northeast 486 559 35,000  Level Kansas City Center
Tue 08:30:25 AM 36.9022 -93.7464 43° Northeast 480 552 35,000  Level Kansas City Center
Tue 08:31:27 AM 37.0044 -93.6344 41° Northeast 483 556 35,000  Level Kansas City Center
Tue 08:32:28 AM 37.1067 -93.5244 41° Northeast 484 557 35,000  Level Kansas City Center
Tue 08:33:30 AM 37.2078 -93.4131 41° Northeast 483 556 35,000  Level Kansas City Center
Tue 08:34:31 AM 37.3111 -93.3050 40° Northeast 481 554 35,000  Level Kansas City Center
Tue 08:35:32 AM 37.4122 -93.1931 41° Northeast 481 554 35,000  Level Kansas City Center
Tue 08:36:34 AM 37.5111 -93.0800 42° Northeast 479 551 35,000  Level Kansas City Center
Tue 08:37:35 AM 37.6061 -92.9617 45° Northeast 478 550 35,000  Level Kansas City Center
Tue 08:38:37 AM 37.6842 -92.8197 55° Northeast 492 566 35,000  Level Kansas City Center
Tue 08:39:38 AM 37.7986 -92.6950 41° Northeast 481 554 35,000  Level Kansas City Center
Tue 08:40:39 AM 37.8053 -92.5375 87° East 474 545 35,000  Level Kansas City Center
Tue 08:41:41 AM 37.7833 -92.3744 100° East 484 557 35,000  Level Kansas City Center
Tue 08:42:42 AM 37.7742 -92.2092 94° East 478 550 35,000  Level Kansas City Center
Tue 08:43:44 AM 37.7658 -92.0419 94° East 468 539 35,000 -390 Level Kansas City Center
Tue 08:44:45 AM 37.7586 -91.8783 93° East 468 539 34,200 -836 Descending Kansas City Center
Tue 08:45:46 AM 37.7525 -91.7125 93° East 472 543 33,300 -927 Descending Kansas City Center
Tue 08:46:48 AM 37.7436 -91.5453 94° East 475 547 32,300 -1,073 Descending Kansas City Center
Tue 08:47:49 AM 37.7333 -91.3442 94° East 477 549 31,100 -1,122 Descending Kansas City Center
Tue 08:48:51 AM 37.7436 -91.1789 85° East 482 555 30,000 -1,366 Descending Kansas City Center
Tue 08:49:52 AM 37.7986 -91.0331 64° Northeast 490 564 28,300 -1,869 Descending Kansas City Center
Tue 08:50:53 AM 37.8544 -90.8739 66° East 495 570 26,200 -2,098 Descending Kansas City Center
Tue 08:51:55 AM 37.9094 -90.7136 66° East 498 573 24,000 -2,195 Descending Kansas City Center
Tue 08:52:56 AM 37.9625 -90.5558 67° East 494 568 21,700 -2,293 Descending Kansas City Center
Tue 08:53:58 AM 38.0147 -90.4047 66° East 479 551 19,300 -2,439 Descending Kansas City Center
Tue 08:54:59 AM 38.0728 -90.2283 67° East 457 526 16,700 -1,672 Descending Kansas City Center
Tue 08:56:00 AM 38.1469 -90.1147 50° Northeast 441 507 15,900 -390 Descending Kansas City Center
Tue 08:57:02 AM 38.2581 -90.1419 349° North 412 474 15,900 -98 Level Kansas City Center
Tue 08:58:03 AM 38.3561 -90.1489 357° North 365 420 15,700 -934 Descending Kansas City Center
Tue 08:59:04 AM 38.4497 -90.0844 28° Northeast 346 398 14,000 -1,902 Descending Kansas City Center
Tue 09:00:06 AM 38.5333 -90.0275 28° Northeast 341 392 11,800 -2,098 Descending Kansas City Center
Tue 09:01:07 AM 38.6025 -89.9808 28° Northeast 334 384 9,700 -2,508 Descending Kansas City Center
Tue 09:02:08 AM 38.6803 -89.9981 350° North 301 346 6,700 -1,951 Descending Kansas City Center
Tue 09:03:10 AM 38.6500 -90.0647 240° Southwest 247 284 5,700 -1,317 Descending Kansas City Center
Tue 09:04:11 AM 38.6592 -90.1350 280° West 216 249 4,000 -1,672 Descending Kansas City Center

Login

Don't have an account? Register now (free) for customized features, flight alerts, and more!